createdAt,value
2022-12-15T00:00:50.382Z,100389.91
2022-12-15T00:03:46.586Z,100392.27
2022-12-15T00:06:33.727Z,100389.85
2022-12-15T00:09:20.832Z,100386.96
2022-12-15T00:12:07.649Z,100389.67
2022-12-15T00:14:54.832Z,100386.65
2022-12-15T00:17:42.048Z,100389.30
2022-12-15T00:20:29.838Z,100389.64
2022-12-15T00:23:17.330Z,100385.95
2022-12-15T00:26:04.447Z,100383.08
2022-12-15T00:28:51.255Z,100382.41
2022-12-15T00:31:38.201Z,100376.93
2022-12-15T00:34:25.360Z,100377.59
2022-12-15T00:37:12.423Z,100379.42
2022-12-15T00:39:41.160Z,100382.72
2022-12-15T00:42:10.587Z,100379.86
2022-12-15T00:44:39.199Z,100377.23
2022-12-15T00:47:07.843Z,100376.88
2022-12-15T00:49:54.889Z,100373.87
2022-12-15T00:52:42.025Z,100379.08
2022-12-15T00:55:28.810Z,100377.59
2022-12-15T00:58:15.838Z,100381.45
2022-12-15T01:01:02.590Z,100389.27
2022-12-15T01:03:49.684Z,100389.55
2022-12-15T01:06:38.574Z,100386.04
2022-12-15T01:09:29.073Z,100382.19
2022-12-15T01:12:16.396Z,100372.13
2022-12-15T01:15:03.114Z,100373.89
2022-12-15T01:17:50.206Z,100380.14
2022-12-15T01:20:19.073Z,100382.80
2022-12-15T01:22:53.633Z,100382.19
2022-12-15T01:25:26.357Z,100384.36
2022-12-15T01:27:55.434Z,100386.73
2022-12-15T01:30:27.099Z,100377.65
2022-12-15T01:32:55.748Z,100374.49
2022-12-15T01:35:24.432Z,100368.17
2022-12-15T01:37:53.070Z,100374.59
2022-12-15T01:40:40.213Z,100365.00
2022-12-15T01:43:24.092Z,100355.80
2022-12-15T01:46:23.593Z,100357.17
2022-12-15T01:49:02.788Z,100345.17
2022-12-15T01:51:40.145Z,100345.42
2022-12-15T01:54:32.562Z,100339.95
2022-12-15T01:57:09.240Z,100340.31
2022-12-15T01:59:52.056Z,100339.60
2022-12-15T02:02:25.421Z,100334.98
2022-12-15T02:04:58.112Z,100333.30
2022-12-15T02:07:27.915Z,100321.64
2022-12-15T02:10:01.264Z,100313.85
2022-12-15T02:12:29.995Z,100309.14
2022-12-15T02:15:36.670Z,100309.88
2022-12-15T02:18:23.149Z,100310.02
2022-12-15T02:21:26.291Z,100307.24
2022-12-15T02:24:10.889Z,100309.64
2022-12-15T02:26:54.899Z,100299.14
2022-12-15T02:29:47.587Z,100298.19
2022-12-15T02:32:32.194Z,100306.87
2022-12-15T02:35:21.733Z,100295.33
2022-12-15T02:37:50.662Z,100289.24
2022-12-15T02:40:19.530Z,100293.64
2022-12-15T02:42:57.804Z,100296.92
2022-12-15T02:45:52.587Z,100292.59
2022-12-15T02:48:41.410Z,100285.59
2022-12-15T02:51:50.159Z,100285.21
2022-12-15T02:55:03.032Z,100283.02
2022-12-15T02:58:15.234Z,100274.43
2022-12-15T03:01:09.749Z,100273.73
2022-12-15T03:03:40.368Z,100273.68
2022-12-15T03:06:10.004Z,100280.83
2022-12-15T03:08:38.662Z,100276.51
2022-12-15T03:11:07.423Z,100280.30
2022-12-15T03:13:36.290Z,100278.21
2022-12-15T03:16:05.207Z,100283.60
2022-12-15T03:18:34.378Z,100277.70
2022-12-15T03:21:03.327Z,100279.46
2022-12-15T03:23:34.526Z,100273.44
2022-12-15T03:26:03.246Z,100262.71
2022-12-15T03:28:31.916Z,100262.31
2022-12-15T03:31:00.578Z,100268.66
2022-12-15T03:33:29.844Z,100269.27
2022-12-15T03:35:58.855Z,100258.63
2022-12-15T03:38:27.531Z,100261.14
2022-12-15T03:40:56.309Z,100260.35
2022-12-15T03:43:25.017Z,100254.08
2022-12-15T03:45:53.953Z,100252.44
2022-12-15T03:48:22.814Z,100250.98
2022-12-15T03:50:51.820Z,100251.11
2022-12-15T03:53:20.422Z,100253.10
2022-12-15T03:55:49.029Z,100256.70
2022-12-15T03:58:17.752Z,100257.13
2022-12-15T04:00:46.446Z,100255.02
2022-12-15T04:03:15.171Z,100252.77
2022-12-15T04:05:43.879Z,100250.77
2022-12-15T04:08:13.148Z,100245.43
2022-12-15T04:10:41.846Z,100240.49
2022-12-15T04:13:12.105Z,100243.36
2022-12-15T04:15:41.049Z,100242.20
2022-12-15T04:18:11.428Z,100239.63
2022-12-15T04:20:40.858Z,100243.42
2022-12-15T04:23:09.528Z,100240.27
2022-12-15T04:25:56.762Z,100239.89
2022-12-15T04:28:43.577Z,100236.51
2022-12-15T04:31:35.412Z,100229.97
2022-12-15T04:34:28.918Z,100232.85
2022-12-15T04:37:16.227Z,100229.58
2022-12-15T04:40:08.410Z,100224.33
2022-12-15T04:42:58.885Z,100222.55
2022-12-15T04:45:46.678Z,100218.14
2022-12-15T04:48:33.908Z,100223.17
2022-12-15T04:51:22.741Z,100220.90
2022-12-15T04:54:10.983Z,100226.39
2022-12-15T04:56:58.016Z,100225.54
2022-12-15T04:59:44.754Z,100224.48
2022-12-15T05:02:32.046Z,100225.16
2022-12-15T05:05:18.905Z,100233.52
2022-12-15T05:08:05.902Z,100232.05
2022-12-15T05:10:52.734Z,100234.86
2022-12-15T05:13:39.751Z,100235.95
2022-12-15T05:16:26.910Z,100236.27
2022-12-15T05:19:13.920Z,100240.39
2022-12-15T05:22:00.638Z,100242.02
2022-12-15T05:24:47.549Z,100249.45
2022-12-15T05:27:34.424Z,100244.79
2022-12-15T05:30:21.442Z,100246.10
2022-12-15T05:32:50.089Z,100248.12
2022-12-15T05:35:18.927Z,100248.44
2022-12-15T05:37:47.585Z,100248.86
2022-12-15T05:40:16.376Z,100246.89
2022-12-15T05:42:45.033Z,100245.48
2022-12-15T05:45:19.017Z,100245.94
2022-12-15T05:47:54.830Z,100248.23
2022-12-15T05:50:24.191Z,100249.80
2022-12-15T05:52:52.980Z,100249.61
2022-12-15T05:55:21.630Z,100247.98
2022-12-15T05:57:54.499Z,100258.84
2022-12-15T06:00:23.580Z,100258.71
2022-12-15T06:02:52.335Z,100260.67
2022-12-15T06:05:21.059Z,100260.48
2022-12-15T06:07:49.686Z,100260.17
2022-12-15T06:10:18.286Z,100257.36
2022-12-15T06:12:47.136Z,100257.66
2022-12-15T06:15:16.546Z,100259.05
2022-12-15T06:17:45.171Z,100259.89
2022-12-15T06:20:18.185Z,100261.45
2022-12-15T06:22:50.162Z,100265.61
2022-12-15T06:25:18.918Z,100268.98
2022-12-15T06:27:47.525Z,100269.50
2022-12-15T06:30:16.568Z,100269.66
2022-12-15T06:32:45.119Z,100273.52
2022-12-15T06:35:18.519Z,100269.25
2022-12-15T06:37:47.175Z,100270.85
2022-12-15T06:40:15.915Z,100277.08
2022-12-15T06:42:44.563Z,100284.27
2022-12-15T06:45:13.240Z,100291.16
2022-12-15T06:47:41.873Z,100293.52
2022-12-15T06:50:10.711Z,100288.90
2022-12-15T06:52:39.413Z,100292.26
2022-12-15T06:55:08.883Z,100295.42
2022-12-15T06:57:39.166Z,100295.35
2022-12-15T07:00:09.012Z,100292.29
2022-12-15T07:02:37.817Z,100287.84
2022-12-15T07:05:07.160Z,100291.19
2022-12-15T07:07:35.787Z,100286.15
2022-12-15T07:10:05.072Z,100287.70
2022-12-15T07:12:33.787Z,100281.62
2022-12-15T07:15:03.195Z,100277.84
2022-12-15T07:17:31.927Z,100278.90
2022-12-15T07:20:00.550Z,100275.18
2022-12-15T07:22:29.397Z,100277.04
2022-12-15T07:24:58.299Z,100275.80
2022-12-15T07:27:27.264Z,100279.85
2022-12-15T07:29:55.951Z,100283.00
2022-12-15T07:32:24.866Z,100281.33
2022-12-15T07:34:53.443Z,100277.85
2022-12-15T07:37:23.159Z,100280.30
2022-12-15T07:39:51.860Z,100282.04
2022-12-15T07:42:20.620Z,100283.67
2022-12-15T07:44:49.914Z,100285.52
2022-12-15T07:47:18.939Z,100286.54
2022-12-15T07:49:47.519Z,100284.98
2022-12-15T07:52:16.356Z,100286.61
2022-12-15T07:54:45.529Z,100295.87
2022-12-15T07:57:14.347Z,100299.79
2022-12-15T07:59:44.030Z,100300.83
2022-12-15T08:02:14.131Z,100295.70
2022-12-15T08:04:42.940Z,100293.29
2022-12-15T08:07:12.310Z,100293.51
2022-12-15T08:09:40.993Z,100298.71
2022-12-15T08:12:09.604Z,100305.27
2022-12-15T08:14:38.222Z,100313.54
2022-12-15T08:17:06.989Z,100320.27
2022-12-15T08:19:35.724Z,100326.29
2022-12-15T08:22:04.390Z,100322.58
2022-12-15T08:24:32.979Z,100317.83
2022-12-15T08:27:01.635Z,100324.95
2022-12-15T08:29:50.719Z,100325.23
2022-12-15T08:32:20.659Z,100324.85
2022-12-15T08:34:49.873Z,100317.66
2022-12-15T08:37:18.499Z,100313.80
2022-12-15T08:39:48.278Z,100310.80
2022-12-15T08:42:23.047Z,100304.72
2022-12-15T08:44:52.336Z,100306.36
2022-12-15T08:47:20.990Z,100305.04
2022-12-15T08:49:50.436Z,100302.75
2022-12-15T08:52:19.108Z,100299.36
2022-12-15T08:54:50.922Z,100293.31
2022-12-15T08:57:19.688Z,100292.34
2022-12-15T08:59:48.438Z,100300.90
2022-12-15T09:02:20.542Z,100292.75
2022-12-15T09:04:51.076Z,100290.14
2022-12-15T09:07:21.265Z,100286.29
2022-12-15T09:09:49.937Z,100286.08
2022-12-15T09:12:20.241Z,100285.10
2022-12-15T09:14:48.808Z,100278.65
2022-12-15T09:17:17.606Z,100274.16
2022-12-15T09:19:46.333Z,100270.29
2022-12-15T09:22:15.033Z,100267.45
2022-12-15T09:24:43.719Z,100272.25
2022-12-15T09:27:12.755Z,100274.98
2022-12-15T09:29:41.512Z,100274.21
2022-12-15T09:32:14.065Z,100272.52
2022-12-15T09:34:43.301Z,100268.50
2022-12-15T09:37:11.835Z,100270.25
2022-12-15T09:39:40.493Z,100279.19
2022-12-15T09:42:28.102Z,100278.00
2022-12-15T09:45:21.746Z,100272.92
2022-12-15T09:47:59.146Z,100263.79
2022-12-15T09:50:41.457Z,100265.25
2022-12-15T09:53:45.706Z,100259.77
2022-12-15T09:56:21.360Z,100261.94
2022-12-15T09:59:05.935Z,100261.34
2022-12-15T10:01:52.840Z,100261.85
2022-12-15T10:05:12.741Z,100258.14
2022-12-15T10:07:46.685Z,100257.10
2022-12-15T10:10:43.043Z,100257.04
2022-12-15T10:13:45.788Z,100260.70
2022-12-15T10:16:36.294Z,100258.27
2022-12-15T10:19:27.004Z,100258.44
2022-12-15T10:21:58.051Z,100263.57
2022-12-15T10:25:09.059Z,100262.39
2022-12-15T10:27:44.770Z,100264.91
2022-12-15T10:30:15.283Z,100268.84
2022-12-15T10:33:02.403Z,100274.85
2022-12-15T10:35:35.610Z,100283.02
2022-12-15T10:38:14.973Z,100289.52
2022-12-15T10:41:07.751Z,100293.66
2022-12-15T10:43:40.689Z,100289.10
2022-12-15T10:46:18.978Z,100280.46
2022-12-15T10:48:51.475Z,100286.44
2022-12-15T10:51:31.001Z,100292.36
2022-12-15T10:54:11.727Z,100286.23
2022-12-15T10:56:53.317Z,100279.83
2022-12-15T10:59:38.845Z,100283.05
2022-12-15T11:02:37.411Z,100286.07
2022-12-15T11:05:15.808Z,100287.44
2022-12-15T11:07:54.533Z,100291.96
2022-12-15T11:10:50.386Z,100290.64
2022-12-15T11:13:22.813Z,100294.22
2022-12-15T11:15:56.341Z,100294.52
2022-12-15T11:18:44.892Z,100300.45
2022-12-15T11:21:39.645Z,100304.20
2022-12-15T11:24:18.310Z,100301.61
2022-12-15T11:26:51.319Z,100308.04
2022-12-15T11:29:50.129Z,100312.14
2022-12-15T11:32:25.372Z,100318.08
2022-12-15T11:34:54.373Z,100316.60
2022-12-15T11:37:40.739Z,100321.70
2022-12-15T11:40:40.752Z,100316.05
2022-12-15T11:43:35.876Z,100322.00
2022-12-15T11:46:52.097Z,100321.04
2022-12-15T11:49:44.713Z,100310.95
2022-12-15T11:52:58.283Z,100311.88
2022-12-15T11:56:10.068Z,100311.20
2022-12-15T11:58:54.524Z,100307.52
2022-12-15T12:02:12.926Z,100318.08
2022-12-15T12:05:21.129Z,100334.03
2022-12-15T12:08:07.977Z,100336.80
2022-12-15T12:11:04.334Z,100339.48
2022-12-15T12:14:11.676Z,100337.34
2022-12-15T12:17:23.366Z,100343.45
2022-12-15T12:20:00.236Z,100349.91
2022-12-15T12:22:35.990Z,100354.13
2022-12-15T12:25:19.114Z,100365.63
2022-12-15T12:27:58.905Z,100372.96
2022-12-15T12:30:44.600Z,100380.19
2022-12-15T12:33:29.912Z,100387.35
2022-12-15T12:36:06.272Z,100391.48
2022-12-15T12:38:41.583Z,100395.50
2022-12-15T12:41:37.004Z,100399.31
2022-12-15T12:44:34.169Z,100401.45
2022-12-15T12:47:36.345Z,100403.77
2022-12-15T12:50:21.789Z,100409.30
2022-12-15T12:52:58.218Z,100414.09
2022-12-15T12:55:41.980Z,100412.64
2022-12-15T12:58:41.599Z,100414.74
2022-12-15T13:01:26.211Z,100419.48
2022-12-15T13:04:40.418Z,100426.92
2022-12-15T13:07:35.377Z,100431.37
2022-12-15T13:10:09.734Z,100436.92
2022-12-15T13:13:00.568Z,100436.48
2022-12-15T13:15:50.893Z,100442.23
2022-12-15T13:18:27.495Z,100442.29
2022-12-15T13:20:58.275Z,100448.69
2022-12-15T13:23:27.804Z,100452.85
2022-12-15T13:25:59.387Z,100449.70
2022-12-15T13:28:39.241Z,100451.46
2022-12-15T13:31:17.153Z,100455.27
2022-12-15T13:33:54.150Z,100464.92
2022-12-15T13:36:37.991Z,100468.15
2022-12-15T13:39:12.761Z,100460.59
2022-12-15T13:41:54.513Z,100460.21
2022-12-15T13:44:32.175Z,100465.92
2022-12-15T13:47:16.765Z,100467.13
2022-12-15T13:53:18.512Z,100479.88
2022-12-15T13:56:24.530Z,100494.92
2022-12-15T13:59:13.592Z,100500.63
2022-12-15T14:01:51.639Z,100509.02
2022-12-15T14:04:21.695Z,100525.03
2022-12-15T14:07:00.491Z,100530.92
2022-12-15T14:09:34.490Z,100535.66
2022-12-15T14:12:06.769Z,100541.27
2022-12-15T14:14:42.953Z,100543.44
2022-12-15T14:17:16.302Z,100545.89
2022-12-15T14:19:50.969Z,100547.91
2022-12-15T14:22:29.023Z,100548.67
2022-12-15T14:25:20.095Z,100558.26
2022-12-15T14:27:50.773Z,100571.58
2022-12-15T14:30:22.964Z,100575.13
2022-12-15T14:33:16.530Z,100577.02
2022-12-15T14:35:49.584Z,100575.92
2022-12-15T14:38:35.295Z,100574.81
2022-12-15T14:41:06.422Z,100579.70
2022-12-15T14:43:39.854Z,100587.64
2022-12-15T14:46:16.131Z,100588.60
2022-12-15T14:48:57.327Z,100585.36
2022-12-15T14:51:31.822Z,100580.97
2022-12-15T14:54:00.589Z,100584.60
2022-12-15T14:56:32.844Z,100589.67
2022-12-15T14:59:19.019Z,100593.09
2022-12-15T15:01:59.843Z,100595.24
2022-12-15T15:03:16.234Z,100470.94
2022-12-15T15:04:34.317Z,100599.45
2022-12-15T15:07:06.716Z,100604.55
2022-12-15T15:09:43.096Z,100610.89
2022-12-15T15:12:18.064Z,100615.77
2022-12-15T15:14:51.825Z,100618.75
2022-12-15T15:17:37.916Z,100622.55
2022-12-15T15:20:37.955Z,100633.94
2022-12-15T15:23:19.312Z,100636.83
2022-12-15T15:25:56.695Z,100638.61
2022-12-15T15:28:35.905Z,100639.36
2022-12-15T15:31:41.826Z,100643.65
2022-12-15T15:34:11.634Z,100654.80
2022-12-15T15:36:40.484Z,100652.66
2022-12-15T15:39:20.379Z,100653.16
2022-12-15T15:41:49.097Z,100661.06
2022-12-15T15:44:17.750Z,100667.29
2022-12-15T15:46:52.197Z,100674.65
2022-12-15T15:49:23.654Z,100679.38
2022-12-15T15:51:52.256Z,100682.12
2022-12-15T15:54:25.356Z,100685.98
2022-12-15T15:56:53.840Z,100693.34
2022-12-15T15:59:25.326Z,100691.19
2022-12-15T16:01:56.203Z,100694.20
2022-12-15T16:04:26.459Z,100687.71
2022-12-15T16:06:55.349Z,100684.52
2022-12-15T16:09:25.096Z,100688.98
2022-12-15T16:11:53.815Z,100701.16
2022-12-15T16:14:22.604Z,100708.80
2022-12-15T16:16:54.130Z,100710.59
2022-12-15T16:19:24.103Z,100700.71
2022-12-15T16:21:53.427Z,100706.55
2022-12-15T16:24:22.165Z,100724.86
2022-12-15T16:26:51.387Z,100736.23
2022-12-15T16:29:21.583Z,100737.09
2022-12-15T16:31:50.496Z,100744.73
2022-12-15T16:34:24.817Z,100737.75
2022-12-15T16:36:53.644Z,100730.95
2022-12-15T16:39:33.655Z,100729.45
2022-12-15T16:42:03.152Z,100732.35
2022-12-15T16:44:31.852Z,100740.36
2022-12-15T16:47:00.535Z,100749.64
2022-12-15T16:49:35.105Z,100763.41
2022-12-15T16:52:19.297Z,100760.05
2022-12-15T16:54:50.952Z,100765.23
2022-12-15T16:57:19.706Z,100773.99
2022-12-15T16:59:50.050Z,100776.99
2022-12-15T17:02:28.387Z,100781.13
2022-12-15T17:04:57.602Z,100779.26
2022-12-15T17:07:28.269Z,100785.44
2022-12-15T17:09:57.126Z,100795.98
2022-12-15T17:12:26.227Z,100807.27
2022-12-15T17:14:54.856Z,100819.73
2022-12-15T17:17:23.622Z,100834.55
2022-12-15T17:20:27.546Z,100837.05
2022-12-15T17:22:41.139Z,100847.53
2022-12-15T17:25:44.265Z,100849.55
2022-12-15T17:28:20.908Z,100834.42
2022-12-15T17:30:51.813Z,100835.02
2022-12-15T17:33:27.791Z,100842.14
2022-12-15T17:36:01.678Z,100851.05
2022-12-15T17:38:31.007Z,100862.23
2022-12-15T17:41:01.286Z,100863.33
2022-12-15T17:43:35.712Z,100858.66
2022-12-15T17:46:05.006Z,100860.79
2022-12-15T17:48:34.123Z,100864.39
2022-12-15T17:51:02.845Z,100869.36
2022-12-15T17:53:32.120Z,100876.70
2022-12-15T17:56:01.073Z,100879.91
2022-12-15T17:58:29.821Z,100879.80
2022-12-15T18:00:59.302Z,100883.54
2022-12-15T18:03:28.265Z,100889.58
2022-12-15T18:05:57.669Z,100901.69
2022-12-15T18:08:28.347Z,100913.75
2022-12-15T18:10:58.272Z,100912.91
2022-12-15T18:13:35.032Z,100915.85
2022-12-15T18:16:04.641Z,100921.67
2022-12-15T18:18:35.156Z,100923.64
2022-12-15T18:21:14.724Z,100924.83
2022-12-15T18:23:45.086Z,100924.31
2022-12-15T18:26:15.315Z,100924.65
2022-12-15T18:28:44.236Z,100911.84
2022-12-15T18:31:28.217Z,100913.52
2022-12-15T18:34:04.122Z,100911.95
2022-12-15T18:36:33.731Z,100914.63
2022-12-15T18:39:18.869Z,100930.64
2022-12-15T18:41:48.724Z,100940.10
2022-12-15T18:44:27.223Z,100945.66
2022-12-15T18:46:56.432Z,100944.84
2022-12-15T18:49:25.228Z,100951.88
2022-12-15T18:51:53.949Z,100957.86
2022-12-15T18:54:24.633Z,100969.89
2022-12-15T18:56:54.866Z,100975.95
2022-12-15T18:59:23.690Z,100979.83
2022-12-15T19:01:52.464Z,100986.56
2022-12-15T19:04:21.183Z,100994.88
2022-12-15T19:06:49.893Z,100993.92
2022-12-15T19:09:23.427Z,100988.55
2022-12-15T19:12:10.072Z,100987.52
2022-12-15T19:14:41.540Z,100981.19
2022-12-15T19:17:41.148Z,100962.17
2022-12-15T19:20:37.255Z,100948.08
2022-12-15T19:23:07.207Z,100949.90
2022-12-15T19:25:36.021Z,100966.70
2022-12-15T19:28:15.657Z,100990.41
2022-12-15T19:30:45.156Z,100988.60
2022-12-15T19:33:15.597Z,100979.54
2022-12-15T19:35:48.900Z,100986.72
2022-12-15T19:38:25.965Z,100994.41
2022-12-15T19:40:56.708Z,100990.05
2022-12-15T19:43:26.498Z,100981.02
2022-12-15T19:45:55.192Z,100978.23
2022-12-15T19:48:24.505Z,100967.77
2022-12-15T19:50:54.784Z,100966.48
2022-12-15T19:53:27.430Z,100973.29
2022-12-15T19:56:01.646Z,100978.88
2022-12-15T19:58:34.182Z,100980.66
2022-12-15T20:01:07.935Z,100975.00
2022-12-15T20:03:37.427Z,100980.75
2022-12-15T20:06:17.368Z,100991.74
2022-12-15T20:08:50.600Z,100998.34
2022-12-15T20:11:24.494Z,100995.22
2022-12-15T20:13:54.136Z,100985.38
2022-12-15T20:16:23.756Z,100980.14
2022-12-15T20:18:55.126Z,100985.18
2022-12-15T20:21:31.469Z,100992.27
2022-12-15T20:24:16.624Z,101000.39
2022-12-15T20:26:46.116Z,101005.89
2022-12-15T20:29:28.440Z,101015.85
2022-12-15T20:31:59.010Z,101022.91
2022-12-15T20:34:28.054Z,101019.91
2022-12-15T20:36:57.415Z,101019.71
2022-12-15T20:39:30.422Z,101017.64
2022-12-15T20:41:59.050Z,101012.25
2022-12-15T20:44:28.052Z,101010.25
2022-12-15T20:46:57.402Z,101012.52
2022-12-15T20:49:26.640Z,101016.70
2022-12-15T20:51:55.275Z,101016.98
2022-12-15T20:54:24.238Z,101013.57
2022-12-15T20:56:53.517Z,101010.33
2022-12-15T20:59:22.289Z,101006.14
2022-12-15T21:01:51.811Z,101011.31
2022-12-15T21:04:28.648Z,101012.29
2022-12-15T21:06:57.770Z,101011.27
2022-12-15T21:09:26.933Z,101013.34
2022-12-15T21:11:55.751Z,101019.25
2022-12-15T21:14:24.769Z,101029.86
2022-12-15T21:16:53.990Z,101024.09
2022-12-15T21:19:23.405Z,101018.09
2022-12-15T21:21:55.585Z,101023.24
2022-12-15T21:24:27.455Z,101030.53
2022-12-15T21:26:56.565Z,101031.77
2022-12-15T21:29:28.295Z,101023.40
2022-12-15T21:31:57.478Z,101020.60
2022-12-15T21:34:26.193Z,101016.23
2022-12-15T21:36:55.543Z,101020.02
2022-12-15T21:39:30.150Z,101026.91
2022-12-15T21:42:03.892Z,101025.33
2022-12-15T21:44:32.535Z,101029.73
2022-12-15T21:47:01.279Z,101029.00
2022-12-15T21:49:29.990Z,101020.39
2022-12-15T21:52:01.286Z,101021.38
2022-12-15T21:54:36.431Z,101015.52
2022-12-15T21:57:07.029Z,101019.74
2022-12-15T21:59:36.592Z,101028.83
2022-12-15T22:02:24.741Z,101037.13
2022-12-15T22:04:55.062Z,101033.17
2022-12-15T22:07:23.920Z,101033.58
2022-12-15T22:09:52.562Z,101029.97
2022-12-15T22:12:24.667Z,101026.42
2022-12-15T22:14:53.347Z,101025.14
2022-12-15T22:17:22.974Z,101030.09
2022-12-15T22:19:51.794Z,101030.26
2022-12-15T22:22:20.841Z,101023.65
2022-12-15T22:24:49.484Z,101020.80
2022-12-15T22:27:22.909Z,101019.95
2022-12-15T22:29:51.689Z,101022.83
2022-12-15T22:32:20.592Z,101020.86
2022-12-15T22:34:49.313Z,101018.13
2022-12-15T22:37:17.871Z,101014.70
2022-12-15T22:39:46.550Z,101013.95
2022-12-15T22:42:17.643Z,101014.71
2022-12-15T22:44:46.362Z,101019.30
2022-12-15T22:47:15.028Z,101019.73
2022-12-15T22:49:43.684Z,101021.80
2022-12-15T22:52:21.442Z,101017.55
2022-12-15T22:54:49.996Z,101014.84
2022-12-15T22:57:27.367Z,101014.83
2022-12-15T23:00:05.963Z,101021.29
2022-12-15T23:02:40.966Z,101026.56
2022-12-15T23:05:14.350Z,101024.66
2022-12-15T23:07:44.411Z,101017.06
2022-12-15T23:10:37.325Z,101005.50
2022-12-15T23:13:07.203Z,100996.66
2022-12-15T23:15:54.703Z,100995.26
2022-12-15T23:18:23.452Z,101005.84
2022-12-15T23:20:52.181Z,101004.02
2022-12-15T23:23:20.733Z,101002.69
2022-12-15T23:25:49.354Z,100992.43
2022-12-15T23:28:17.943Z,100983.55
2022-12-15T23:30:54.765Z,100976.11
2022-12-15T23:33:25.178Z,100970.45
2022-12-15T23:35:56.163Z,100969.83
2022-12-15T23:38:26.128Z,100971.54
2022-12-15T23:40:56.923Z,100966.63
2022-12-15T23:43:27.769Z,100956.84
2022-12-15T23:46:06.223Z,100948.08
2022-12-15T23:48:38.470Z,100943.49
2022-12-15T23:51:17.123Z,100948.16
2022-12-15T23:53:47.580Z,100951.23
2022-12-15T23:56:22.501Z,100950.90
2022-12-15T23:58:57.760Z,100949.76
